createdAt,value
2023-02-05T02:26:42.942Z,85.24
2023-02-05T02:28:25.299Z,85.42
2023-02-05T02:30:14.995Z,85.55
2023-02-05T02:31:52.156Z,85.51
2023-02-05T02:33:34.907Z,85.60
2023-02-05T02:35:41.994Z,85.44
2023-02-05T02:37:37.191Z,86.20
2023-02-05T02:39:09.080Z,86.16
2023-02-05T02:40:45.254Z,86.17
2023-02-05T02:42:23.784Z,86.18
2023-02-05T02:44:00.205Z,86.47
2023-02-05T02:45:35.064Z,86.35
2023-02-05T02:47:38.844Z,86.58
2023-02-05T02:49:16.188Z,86.60
2023-02-05T02:50:50.185Z,86.62
2023-02-05T02:52:24.804Z,86.70
2023-02-05T02:53:58.770Z,86.91
2023-02-05T02:55:34.902Z,86.72
2023-02-05T02:57:09.166Z,86.75
2023-02-05T02:58:49.965Z,86.73
2023-02-05T03:00:26.672Z,86.84
2023-02-05T03:02:01.139Z,86.67
2023-02-05T03:03:37.469Z,86.62
2023-02-05T03:05:12.427Z,86.75
2023-02-05T03:06:47.824Z,86.66
2023-02-05T03:08:33.318Z,86.74
2023-02-05T03:10:15.828Z,86.75
2023-02-05T03:11:48.237Z,87.02
2023-02-05T03:13:20.447Z,87.11
2023-02-05T03:14:53.248Z,87.38
2023-02-05T03:16:27.496Z,87.34
2023-02-05T03:17:59.676Z,87.46
2023-02-05T03:19:31.914Z,87.70
2023-02-05T03:21:08.420Z,87.64
2023-02-05T03:22:40.526Z,87.65
2023-02-05T03:24:13.419Z,87.88
2023-02-05T03:25:45.571Z,87.62
2023-02-05T03:27:17.672Z,87.69
2023-02-05T03:28:49.727Z,87.47
2023-02-05T03:32:34.376Z,87.80
2023-02-05T03:34:31.342Z,87.91
2023-02-05T03:36:22.012Z,87.87
2023-02-05T03:38:33.950Z,88.25
2023-02-05T03:40:11.657Z,88.31
2023-02-05T03:41:56.635Z,88.42
2023-02-05T03:43:49.463Z,89.53
2023-02-05T03:45:32.599Z,89.63
2023-02-05T03:47:16.667Z,89.78
2023-02-05T03:49:20.156Z,89.69
2023-02-05T03:51:07.121Z,89.79
2023-02-05T03:52:45.328Z,89.83
2023-02-05T03:54:37.551Z,89.93
2023-02-05T03:56:17.068Z,90.07
2023-02-05T03:58:09.538Z,90.07
2023-02-05T03:59:41.568Z,90.06
2023-02-05T04:01:13.883Z,90.05
2023-02-05T04:02:46.067Z,89.97
2023-02-05T04:04:18.412Z,89.87
2023-02-05T04:05:50.450Z,89.60
2023-02-05T04:07:22.595Z,89.64
2023-02-05T04:08:54.729Z,89.48
2023-02-05T04:10:26.718Z,89.69
2023-02-05T04:11:58.753Z,89.55
2023-02-05T04:13:30.956Z,89.40
2023-02-05T04:15:03.572Z,89.22
2023-02-05T04:16:35.691Z,89.23
2023-02-05T04:18:08.737Z,88.93
2023-02-05T04:19:43.327Z,88.83
2023-02-05T04:21:15.399Z,89.09
2023-02-05T04:22:47.450Z,89.12
2023-02-05T04:24:19.551Z,89.80
2023-02-05T04:25:55.453Z,90.08
2023-02-05T04:27:27.491Z,90.37
2023-02-05T04:28:59.534Z,90.71
2023-02-05T04:30:32.249Z,91.07
2023-02-05T04:32:04.458Z,91.41
2023-02-05T04:35:14.897Z,91.77
2023-02-05T04:36:47.113Z,91.61
2023-02-05T04:38:19.154Z,91.87
2023-02-05T04:39:51.782Z,91.69
2023-02-05T04:41:23.821Z,91.48
2023-02-05T04:42:56.030Z,91.21
2023-02-05T04:44:28.767Z,90.25
2023-02-05T04:46:08.287Z,89.76
2023-02-05T04:47:40.568Z,89.53
2023-02-05T04:49:12.792Z,89.41
2023-02-05T04:50:44.877Z,89.27
2023-02-05T04:52:16.927Z,89.32
2023-02-05T04:53:49.053Z,88.92
2023-02-05T04:55:21.192Z,88.92
2023-02-05T04:56:53.187Z,88.58
2023-02-05T04:58:25.209Z,88.51
2023-02-05T04:59:57.441Z,88.41
2023-02-05T05:01:29.557Z,87.89
2023-02-05T05:03:01.780Z,87.90
2023-02-05T05:04:33.847Z,87.57
2023-02-05T05:06:06.701Z,87.54
2023-02-05T05:07:39.157Z,87.01
2023-02-05T05:09:11.267Z,86.74
2023-02-05T05:10:43.385Z,86.29
2023-02-05T05:12:15.603Z,85.86
2023-02-05T05:13:49.586Z,85.78
2023-02-05T05:15:21.745Z,85.34
2023-02-05T05:16:53.904Z,85.22
2023-02-05T05:18:26.135Z,85.45
2023-02-05T05:19:58.202Z,85.09
2023-02-05T05:21:30.376Z,84.77
2023-02-05T05:23:02.402Z,84.72
2023-02-05T05:24:34.614Z,84.70
2023-02-05T05:26:12.101Z,84.76
2023-02-05T05:27:44.393Z,84.91
2023-02-05T05:29:16.530Z,84.52
2023-02-05T05:30:48.963Z,84.55
2023-02-05T05:32:21.203Z,84.53
2023-02-05T05:33:53.565Z,84.45
2023-02-05T05:35:25.810Z,84.19
2023-02-05T05:36:58.035Z,84.24
